METAR Formatted Surface Weather Observation
Issued by NWS

Home | Current Version | Previous Version | Text Only | Print | Product List | Glossary On
Versions: 1
760
SAUS42 KTAE 201115
MTR1J0
SPECI K1J0 201111Z AUTO 00000KT 10SM BKN003 22/22 A3001 RMK AO2
T02220222 $



USA.gov is the U.S. government's official web portal to all federal, state and local government web resources and services.